sensor_id;sensor_type;location;lat;lon;timestamp;P1;durP1;ratioP1;P2;durP2;ratioP2
27223;SDS011;14965;50.660;13.226;2023-06-26T00:01:39;9.05;;;7.38;;
27223;SDS011;14965;50.660;13.226;2023-06-26T00:04:05;9.38;;;6.25;;
27223;SDS011;14965;50.660;13.226;2023-06-26T00:06:31;9.05;;;7.10;;
27223;SDS011;14965;50.660;13.226;2023-06-26T00:08:58;9.27;;;7.43;;
27223;SDS011;14965;50.660;13.226;2023-06-26T00:11:24;12.73;;;7.20;;
27223;SDS011;14965;50.660;13.226;2023-06-26T00:13:50;10.18;;;6.93;;
27223;SDS011;14965;50.660;13.226;2023-06-26T00:16:16;8.95;;;6.65;;
27223;SDS011;14965;50.660;13.226;2023-06-26T00:18:42;11.95;;;7.30;;
27223;SDS011;14965;50.660;13.226;2023-06-26T00:21:08;12.02;;;7.32;;
27223;SDS011;14965;50.660;13.226;2023-06-26T00:23:34;11.02;;;7.28;;
27223;SDS011;14965;50.660;13.226;2023-06-26T00:26:01;9.85;;;7.55;;
27223;SDS011;14965;50.660;13.226;2023-06-26T00:28:27;11.60;;;7.45;;
27223;SDS011;14965;50.660;13.226;2023-06-26T00:30:53;9.90;;;7.32;;
27223;SDS011;14965;50.660;13.226;2023-06-26T00:33:18;11.75;;;7.65;;
27223;SDS011;14965;50.660;13.226;2023-06-26T00:35:44;11.43;;;7.35;;
27223;SDS011;14965;50.660;13.226;2023-06-26T00:38:10;9.43;;;7.40;;
27223;SDS011;14965;50.660;13.226;2023-06-26T00:40:36;11.50;;;7.90;;
27223;SDS011;14965;50.660;13.226;2023-06-26T00:43:03;9.82;;;7.18;;
27223;SDS011;14965;50.660;13.226;2023-06-26T00:45:29;8.82;;;5.93;;
27223;SDS011;14965;50.660;13.226;2023-06-26T00:47:55;11.48;;;7.72;;
27223;SDS011;14965;50.660;13.226;2023-06-26T00:50:21;23.65;;;7.55;;
27223;SDS011;14965;50.660;13.226;2023-06-26T00:52:47;11.73;;;7.60;;
27223;SDS011;14965;50.660;13.226;2023-06-26T00:55:13;8.95;;;7.10;;
27223;SDS011;14965;50.660;13.226;2023-06-26T00:57:39;12.00;;;7.30;;
27223;SDS011;14965;50.660;13.226;2023-06-26T01:00:08;11.15;;;7.10;;
27223;SDS011;14965;50.660;13.226;2023-06-26T01:02:34;10.25;;;7.65;;
27223;SDS011;14965;50.660;13.226;2023-06-26T01:08:27;12.23;;;7.43;;
27223;SDS011;14965;50.660;13.226;2023-06-26T01:10:54;13.23;;;8.23;;
27223;SDS011;14965;50.660;13.226;2023-06-26T01:13:20;10.13;;;7.10;;
27223;SDS011;14965;50.660;13.226;2023-06-26T01:15:49;9.70;;;7.43;;
27223;SDS011;14965;50.660;13.226;2023-06-26T01:18:16;11.77;;;8.27;;
27223;SDS011;14965;50.660;13.226;2023-06-26T01:20:43;11.15;;;7.90;;
27223;SDS011;14965;50.660;13.226;2023-06-26T01:23:12;13.45;;;8.15;;
27223;SDS011;14965;50.660;13.226;2023-06-26T01:25:51;13.68;;;8.18;;
27223;SDS011;14965;50.660;13.226;2023-06-26T01:28:49;11.43;;;8.13;;
27223;SDS011;14965;50.660;13.226;2023-06-26T01:31:17;12.65;;;8.45;;
27223;SDS011;14965;50.660;13.226;2023-06-26T01:33:45;9.98;;;8.13;;
27223;SDS011;14965;50.660;13.226;2023-06-26T01:36:12;13.35;;;8.23;;
27223;SDS011;14965;50.660;13.226;2023-06-26T01:38:38;11.65;;;7.43;;
27223;SDS011;14965;50.660;13.226;2023-06-26T01:41:04;11.10;;;8.25;;
27223;SDS011;14965;50.660;13.226;2023-06-26T01:43:34;15.15;;;7.78;;
27223;SDS011;14965;50.660;13.226;2023-06-26T01:46:14;14.10;;;8.43;;
27223;SDS011;14965;50.660;13.226;2023-06-26T01:48:49;11.55;;;8.30;;
27223;SDS011;14965;50.660;13.226;2023-06-26T01:51:27;14.60;;;8.77;;
27223;SDS011;14965;50.660;13.226;2023-06-26T01:53:58;13.20;;;8.20;;
27223;SDS011;14965;50.660;13.226;2023-06-26T01:56:26;9.85;;;7.95;;
27223;SDS011;14965;50.660;13.226;2023-06-26T01:58:54;12.90;;;7.63;;
27223;SDS011;14965;50.660;13.226;2023-06-26T02:01:23;9.25;;;7.40;;
27223;SDS011;14965;50.660;13.226;2023-06-26T02:03:49;11.57;;;7.65;;
27223;SDS011;14965;50.660;13.226;2023-06-26T02:06:15;10.05;;;7.55;;
27223;SDS011;14965;50.660;13.226;2023-06-26T02:08:41;11.00;;;8.38;;
27223;SDS011;14965;50.660;13.226;2023-06-26T02:11:07;9.63;;;7.32;;
27223;SDS011;14965;50.660;13.226;2023-06-26T02:13:33;12.15;;;8.18;;
27223;SDS011;14965;50.660;13.226;2023-06-26T02:15:59;9.90;;;7.78;;
27223;SDS011;14965;50.660;13.226;2023-06-26T02:18:26;11.57;;;8.48;;
27223;SDS011;14965;50.660;13.226;2023-06-26T02:20:52;11.65;;;7.93;;
27223;SDS011;14965;50.660;13.226;2023-06-26T02:23:17;12.25;;;8.13;;
27223;SDS011;14965;50.660;13.226;2023-06-26T02:25:43;11.00;;;8.23;;
27223;SDS011;14965;50.660;13.226;2023-06-26T02:28:09;10.43;;;7.43;;
27223;SDS011;14965;50.660;13.226;2023-06-26T02:30:35;11.05;;;8.50;;
27223;SDS011;14965;50.660;13.226;2023-06-26T02:33:01;10.27;;;8.45;;
27223;SDS011;14965;50.660;13.226;2023-06-26T02:35:28;11.23;;;7.85;;
27223;SDS011;14965;50.660;13.226;2023-06-26T02:37:54;15.88;;;8.45;;
27223;SDS011;14965;50.660;13.226;2023-06-26T02:40:20;10.70;;;7.82;;
27223;SDS011;14965;50.660;13.226;2023-06-26T02:42:46;10.90;;;8.23;;
27223;SDS011;14965;50.660;13.226;2023-06-26T02:45:11;11.30;;;8.15;;
27223;SDS011;14965;50.660;13.226;2023-06-26T02:47:37;12.70;;;8.40;;
27223;SDS011;14965;50.660;13.226;2023-06-26T02:50:03;14.00;;;8.82;;
27223;SDS011;14965;50.660;13.226;2023-06-26T02:52:31;9.93;;;7.97;;
27223;SDS011;14965;50.660;13.226;2023-06-26T02:54:57;8.63;;;6.93;;
27223;SDS011;14965;50.660;13.226;2023-06-26T02:57:23;9.05;;;7.30;;
27223;SDS011;14965;50.660;13.226;2023-06-26T02:59:49;11.68;;;8.20;;
27223;SDS011;14965;50.660;13.226;2023-06-26T03:02:15;9.77;;;7.28;;
27223;SDS011;14965;50.660;13.226;2023-06-26T03:04:40;9.68;;;7.70;;
27223;SDS011;14965;50.660;13.226;2023-06-26T03:07:06;11.38;;;8.05;;
27223;SDS011;14965;50.660;13.226;2023-06-26T03:09:33;14.10;;;7.28;;
27223;SDS011;14965;50.660;13.226;2023-06-26T03:11:59;10.63;;;7.63;;
27223;SDS011;14965;50.660;13.226;2023-06-26T03:14:25;12.70;;;7.93;;
27223;SDS011;14965;50.660;13.226;2023-06-26T03:16:51;10.88;;;7.90;;
27223;SDS011;14965;50.660;13.226;2023-06-26T03:19:17;11.07;;;8.18;;
27223;SDS011;14965;50.660;13.226;2023-06-26T03:21:43;9.85;;;7.63;;
27223;SDS011;14965;50.660;13.226;2023-06-26T03:24:09;10.43;;;7.55;;
27223;SDS011;14965;50.660;13.226;2023-06-26T03:26:37;12.30;;;7.80;;
27223;SDS011;14965;50.660;13.226;2023-06-26T03:29:03;10.38;;;8.52;;
27223;SDS011;14965;50.660;13.226;2023-06-26T03:31:28;7.88;;;6.55;;
27223;SDS011;14965;50.660;13.226;2023-06-26T03:33:54;9.85;;;7.10;;
27223;SDS011;14965;50.660;13.226;2023-06-26T03:36:20;10.95;;;7.47;;
27223;SDS011;14965;50.660;13.226;2023-06-26T03:38:46;9.40;;;7.28;;
27223;SDS011;14965;50.660;13.226;2023-06-26T03:41:12;11.05;;;7.38;;
27223;SDS011;14965;50.660;13.226;2023-06-26T03:43:39;13.98;;;7.97;;
27223;SDS011;14965;50.660;13.226;2023-06-26T03:46:05;10.13;;;7.43;;
27223;SDS011;14965;50.660;13.226;2023-06-26T03:48:30;10.63;;;7.70;;
27223;SDS011;14965;50.660;13.226;2023-06-26T03:50:56;9.85;;;7.65;;
27223;SDS011;14965;50.660;13.226;2023-06-26T03:53:23;9.70;;;7.30;;
27223;SDS011;14965;50.660;13.226;2023-06-26T03:55:49;12.13;;;7.72;;
27223;SDS011;14965;50.660;13.226;2023-06-26T03:58:14;10.10;;;7.72;;
27223;SDS011;14965;50.660;13.226;2023-06-26T04:00:42;10.88;;;7.32;;
27223;SDS011;14965;50.660;13.226;2023-06-26T04:03:08;12.43;;;7.70;;
27223;SDS011;14965;50.660;13.226;2023-06-26T04:05:34;9.70;;;7.60;;
27223;SDS011;14965;50.660;13.226;2023-06-26T04:07:59;10.52;;;6.65;;
27223;SDS011;14965;50.660;13.226;2023-06-26T04:10:25;10.98;;;7.45;;
27223;SDS011;14965;50.660;13.226;2023-06-26T04:12:51;9.52;;;7.15;;
27223;SDS011;14965;50.660;13.226;2023-06-26T04:15:17;10.77;;;7.63;;
27223;SDS011;14965;50.660;13.226;2023-06-26T04:17:44;9.45;;;7.32;;
27223;SDS011;14965;50.660;13.226;2023-06-26T04:20:10;9.65;;;7.45;;
27223;SDS011;14965;50.660;13.226;2023-06-26T04:22:36;11.73;;;7.55;;
27223;SDS011;14965;50.660;13.226;2023-06-26T04:25:02;12.48;;;7.80;;
27223;SDS011;14965;50.660;13.226;2023-06-26T04:27:29;11.55;;;7.28;;
27223;SDS011;14965;50.660;13.226;2023-06-26T04:29:56;11.13;;;6.93;;
27223;SDS011;14965;50.660;13.226;2023-06-26T04:32:22;9.60;;;6.63;;
27223;SDS011;14965;50.660;13.226;2023-06-26T04:34:49;9.55;;;6.47;;
27223;SDS011;14965;50.660;13.226;2023-06-26T04:37:15;8.77;;;6.05;;
27223;SDS011;14965;50.660;13.226;2023-06-26T04:39:41;9.57;;;6.13;;
27223;SDS011;14965;50.660;13.226;2023-06-26T04:42:07;9.57;;;6.25;;
27223;SDS011;14965;50.660;13.226;2023-06-26T04:44:33;8.68;;;6.70;;
27223;SDS011;14965;50.660;13.226;2023-06-26T04:46:59;7.22;;;6.13;;
27223;SDS011;14965;50.660;13.226;2023-06-26T04:49:25;7.13;;;5.78;;
27223;SDS011;14965;50.660;13.226;2023-06-26T04:51:52;8.70;;;6.20;;
27223;SDS011;14965;50.660;13.226;2023-06-26T04:54:18;10.15;;;6.43;;
27223;SDS011;14965;50.660;13.226;2023-06-26T04:56:44;8.15;;;5.82;;
27223;SDS011;14965;50.660;13.226;2023-06-26T04:59:10;7.38;;;6.28;;
27223;SDS011;14965;50.660;13.226;2023-06-26T05:01:36;7.28;;;6.10;;
27223;SDS011;14965;50.660;13.226;2023-06-26T05:04:02;8.80;;;6.68;;
27223;SDS011;14965;50.660;13.226;2023-06-26T05:06:28;8.50;;;6.57;;
27223;SDS011;14965;50.660;13.226;2023-06-26T05:08:55;8.90;;;6.95;;
27223;SDS011;14965;50.660;13.226;2023-06-26T05:11:21;9.05;;;6.78;;
27223;SDS011;14965;50.660;13.226;2023-06-26T05:13:47;8.15;;;5.95;;
27223;SDS011;14965;50.660;13.226;2023-06-26T05:16:13;7.65;;;6.40;;
27223;SDS011;14965;50.660;13.226;2023-06-26T05:18:39;8.50;;;6.50;;
27223;SDS011;14965;50.660;13.226;2023-06-26T05:21:05;9.50;;;6.22;;
27223;SDS011;14965;50.660;13.226;2023-06-26T05:23:32;8.48;;;6.47;;
27223;SDS011;14965;50.660;13.226;2023-06-26T05:26:01;9.23;;;6.88;;
27223;SDS011;14965;50.660;13.226;2023-06-26T05:28:28;10.10;;;6.55;;
27223;SDS011;14965;50.660;13.226;2023-06-26T05:30:55;11.15;;;6.65;;
27223;SDS011;14965;50.660;13.226;2023-06-26T05:33:23;9.95;;;6.35;;
27223;SDS011;14965;50.660;13.226;2023-06-26T05:35:52;8.63;;;6.30;;
27223;SDS011;14965;50.660;13.226;2023-06-26T05:38:19;12.57;;;6.03;;
27223;SDS011;14965;50.660;13.226;2023-06-26T05:40:45;9.85;;;6.45;;
27223;SDS011;14965;50.660;13.226;2023-06-26T05:43:14;8.57;;;6.00;;
27223;SDS011;14965;50.660;13.226;2023-06-26T05:45:40;8.48;;;6.35;;
27223;SDS011;14965;50.660;13.226;2023-06-26T05:48:06;8.52;;;6.07;;
27223;SDS011;14965;50.660;13.226;2023-06-26T05:50:32;10.95;;;6.85;;
27223;SDS011;14965;50.660;13.226;2023-06-26T05:52:59;13.15;;;6.70;;
27223;SDS011;14965;50.660;13.226;2023-06-26T05:55:26;7.60;;;6.03;;
27223;SDS011;14965;50.660;13.226;2023-06-26T05:57:52;7.38;;;5.70;;
27223;SDS011;14965;50.660;13.226;2023-06-26T06:00:25;10.10;;;6.55;;
27223;SDS011;14965;50.660;13.226;2023-06-26T06:02:52;7.47;;;6.07;;
27223;SDS011;14965;50.660;13.226;2023-06-26T06:05:18;10.73;;;5.95;;
27223;SDS011;14965;50.660;13.226;2023-06-26T06:07:44;7.63;;;6.07;;
27223;SDS011;14965;50.660;13.226;2023-06-26T06:10:10;8.02;;;6.30;;
27223;SDS011;14965;50.660;13.226;2023-06-26T06:12:35;9.07;;;5.82;;
27223;SDS011;14965;50.660;13.226;2023-06-26T06:15:01;8.02;;;6.20;;
27223;SDS011;14965;50.660;13.226;2023-06-26T06:17:29;7.18;;;6.10;;
27223;SDS011;14965;50.660;13.226;2023-06-26T06:19:55;6.25;;;5.20;;
27223;SDS011;14965;50.660;13.226;2023-06-26T06:22:21;9.50;;;6.32;;
27223;SDS011;14965;50.660;13.226;2023-06-26T06:24:48;7.55;;;5.65;;
27223;SDS011;14965;50.660;13.226;2023-06-26T06:27:15;10.43;;;6.05;;
27223;SDS011;14965;50.660;13.226;2023-06-26T06:29:41;7.68;;;6.03;;
27223;SDS011;14965;50.660;13.226;2023-06-26T06:32:07;9.43;;;5.78;;
27223;SDS011;14965;50.660;13.226;2023-06-26T06:34:35;7.82;;;5.85;;
27223;SDS011;14965;50.660;13.226;2023-06-26T06:37:01;8.77;;;6.22;;
27223;SDS011;14965;50.660;13.226;2023-06-26T06:39:27;7.00;;;5.57;;
27223;SDS011;14965;50.660;13.226;2023-06-26T06:41:54;7.25;;;6.50;;
27223;SDS011;14965;50.660;13.226;2023-06-26T06:44:20;7.22;;;6.10;;
27223;SDS011;14965;50.660;13.226;2023-06-26T06:46:46;7.50;;;5.88;;
27223;SDS011;14965;50.660;13.226;2023-06-26T06:49:12;7.53;;;5.95;;
27223;SDS011;14965;50.660;13.226;2023-06-26T06:51:40;8.30;;;6.07;;
27223;SDS011;14965;50.660;13.226;2023-06-26T06:54:06;8.85;;;5.95;;
27223;SDS011;14965;50.660;13.226;2023-06-26T06:56:31;10.05;;;6.00;;
27223;SDS011;14965;50.660;13.226;2023-06-26T06:58:57;6.47;;;5.72;;
27223;SDS011;14965;50.660;13.226;2023-06-26T07:01:23;7.63;;;6.13;;
27223;SDS011;14965;50.660;13.226;2023-06-26T07:03:49;6.40;;;5.65;;
27223;SDS011;14965;50.660;13.226;2023-06-26T07:06:15;8.90;;;6.13;;
27223;SDS011;14965;50.660;13.226;2023-06-26T07:08:42;8.15;;;6.13;;
27223;SDS011;14965;50.660;13.226;2023-06-26T07:11:08;7.20;;;5.63;;
27223;SDS011;14965;50.660;13.226;2023-06-26T07:13:34;8.43;;;6.15;;
27223;SDS011;14965;50.660;13.226;2023-06-26T07:16:00;6.78;;;5.90;;
27223;SDS011;14965;50.660;13.226;2023-06-26T07:18:26;9.10;;;6.47;;
27223;SDS011;14965;50.660;13.226;2023-06-26T07:20:52;6.60;;;5.88;;
27223;SDS011;14965;50.660;13.226;2023-06-26T07:23:17;6.65;;;5.85;;
27223;SDS011;14965;50.660;13.226;2023-06-26T07:25:45;6.70;;;6.00;;
27223;SDS011;14965;50.660;13.226;2023-06-26T07:28:10;6.70;;;5.82;;
27223;SDS011;14965;50.660;13.226;2023-06-26T07:30:37;8.30;;;6.03;;
27223;SDS011;14965;50.660;13.226;2023-06-26T07:33:03;10.30;;;6.38;;
27223;SDS011;14965;50.660;13.226;2023-06-26T07:35:29;7.55;;;6.72;;
27223;SDS011;14965;50.660;13.226;2023-06-26T07:37:55;10.77;;;6.22;;
27223;SDS011;14965;50.660;13.226;2023-06-26T07:40:21;6.97;;;5.82;;
27223;SDS011;14965;50.660;13.226;2023-06-26T07:42:48;8.15;;;6.60;;
27223;SDS011;14965;50.660;13.226;2023-06-26T07:45:14;7.85;;;6.40;;
27223;SDS011;14965;50.660;13.226;2023-06-26T07:47:40;10.07;;;6.80;;
27223;SDS011;14965;50.660;13.226;2023-06-26T07:50:06;8.20;;;6.50;;
27223;SDS011;14965;50.660;13.226;2023-06-26T07:52:33;8.65;;;6.30;;
27223;SDS011;14965;50.660;13.226;2023-06-26T07:54:59;9.90;;;6.50;;
27223;SDS011;14965;50.660;13.226;2023-06-26T07:57:33;7.80;;;6.30;;
27223;SDS011;14965;50.660;13.226;2023-06-26T08:00:00;8.38;;;6.35;;
27223;SDS011;14965;50.660;13.226;2023-06-26T08:02:27;7.60;;;5.88;;
27223;SDS011;14965;50.660;13.226;2023-06-26T08:04:53;7.50;;;6.07;;
27223;SDS011;14965;50.660;13.226;2023-06-26T08:07:19;7.68;;;6.43;;
27223;SDS011;14965;50.660;13.226;2023-06-26T08:09:45;10.23;;;6.65;;
27223;SDS011;14965;50.660;13.226;2023-06-26T08:12:11;7.25;;;5.95;;
27223;SDS011;14965;50.660;13.226;2023-06-26T08:14:36;14.13;;;7.55;;
27223;SDS011;14965;50.660;13.226;2023-06-26T08:17:04;7.90;;;6.30;;
27223;SDS011;14965;50.660;13.226;2023-06-26T08:19:30;7.57;;;6.15;;
27223;SDS011;14965;50.660;13.226;2023-06-26T08:21:55;6.28;;;5.53;;
27223;SDS011;14965;50.660;13.226;2023-06-26T08:24:21;8.95;;;6.22;;
27223;SDS011;14965;50.660;13.226;2023-06-26T08:26:47;7.90;;;6.20;;
27223;SDS011;14965;50.660;13.226;2023-06-26T08:29:13;7.78;;;6.47;;
27223;SDS011;14965;50.660;13.226;2023-06-26T08:31:40;7.43;;;6.03;;
27223;SDS011;14965;50.660;13.226;2023-06-26T08:34:09;8.60;;;6.70;;
27223;SDS011;14965;50.660;13.226;2023-06-26T08:36:35;8.32;;;6.70;;
27223;SDS011;14965;50.660;13.226;2023-06-26T08:39:01;10.38;;;6.45;;
27223;SDS011;14965;50.660;13.226;2023-06-26T08:41:27;7.25;;;6.50;;
27223;SDS011;14965;50.660;13.226;2023-06-26T08:43:53;6.82;;;6.13;;
27223;SDS011;14965;50.660;13.226;2023-06-26T08:46:19;16.80;;;11.38;;
27223;SDS011;14965;50.660;13.226;2023-06-26T08:48:48;11.32;;;6.53;;
27223;SDS011;14965;50.660;13.226;2023-06-26T08:51:21;9.23;;;6.07;;
27223;SDS011;14965;50.660;13.226;2023-06-26T08:53:52;8.52;;;6.53;;
27223;SDS011;14965;50.660;13.226;2023-06-26T08:56:24;9.30;;;6.18;;
27223;SDS011;14965;50.660;13.226;2023-06-26T08:58:57;7.68;;;6.13;;
27223;SDS011;14965;50.660;13.226;2023-06-26T09:01:23;6.50;;;5.55;;
27223;SDS011;14965;50.660;13.226;2023-06-26T09:03:50;8.68;;;6.20;;
27223;SDS011;14965;50.660;13.226;2023-06-26T09:06:16;8.02;;;6.15;;
27223;SDS011;14965;50.660;13.226;2023-06-26T09:08:44;7.03;;;6.05;;
27223;SDS011;14965;50.660;13.226;2023-06-26T09:11:10;8.95;;;6.03;;
27223;SDS011;14965;50.660;13.226;2023-06-26T09:13:36;6.88;;;6.10;;
27223;SDS011;14965;50.660;13.226;2023-06-26T09:16:04;7.15;;;5.82;;
27223;SDS011;14965;50.660;13.226;2023-06-26T09:18:32;7.43;;;5.80;;
27223;SDS011;14965;50.660;13.226;2023-06-26T09:20:58;7.40;;;5.72;;
27223;SDS011;14965;50.660;13.226;2023-06-26T09:23:24;7.47;;;6.18;;
27223;SDS011;14965;50.660;13.226;2023-06-26T09:25:52;6.97;;;6.00;;
27223;SDS011;14965;50.660;13.226;2023-06-26T09:28:18;8.30;;;6.05;;
27223;SDS011;14965;50.660;13.226;2023-06-26T09:30:45;6.18;;;5.57;;
27223;SDS011;14965;50.660;13.226;2023-06-26T09:33:12;7.55;;;6.10;;
27223;SDS011;14965;50.660;13.226;2023-06-26T09:35:40;7.40;;;6.07;;
27223;SDS011;14965;50.660;13.226;2023-06-26T09:38:06;8.05;;;5.82;;
27223;SDS011;14965;50.660;13.226;2023-06-26T09:40:32;7.75;;;6.18;;
27223;SDS011;14965;50.660;13.226;2023-06-26T09:43:03;6.93;;;5.95;;
27223;SDS011;14965;50.660;13.226;2023-06-26T09:45:30;9.48;;;6.10;;
27223;SDS011;14965;50.660;13.226;2023-06-26T09:47:59;8.80;;;6.18;;
27223;SDS011;14965;50.660;13.226;2023-06-26T09:50:26;7.78;;;6.47;;
27223;SDS011;14965;50.660;13.226;2023-06-26T09:52:52;6.85;;;6.00;;
27223;SDS011;14965;50.660;13.226;2023-06-26T09:55:18;7.78;;;5.70;;
27223;SDS011;14965;50.660;13.226;2023-06-26T09:57:45;9.05;;;6.15;;
27223;SDS011;14965;50.660;13.226;2023-06-26T10:00:15;6.90;;;5.90;;
27223;SDS011;14965;50.660;13.226;2023-06-26T10:02:41;10.02;;;6.07;;
27223;SDS011;14965;50.660;13.226;2023-06-26T10:05:07;6.63;;;5.93;;
27223;SDS011;14965;50.660;13.226;2023-06-26T10:07:33;7.05;;;5.63;;
27223;SDS011;14965;50.660;13.226;2023-06-26T10:10:01;6.80;;;5.88;;
27223;SDS011;14965;50.660;13.226;2023-06-26T10:12:29;6.78;;;5.50;;
27223;SDS011;14965;50.660;13.226;2023-06-26T10:14:56;8.05;;;6.03;;
27223;SDS011;14965;50.660;13.226;2023-06-26T10:17:25;6.95;;;6.25;;
27223;SDS011;14965;50.660;13.226;2023-06-26T10:19:55;7.80;;;5.68;;
27223;SDS011;14965;50.660;13.226;2023-06-26T10:22:25;6.47;;;5.45;;
27223;SDS011;14965;50.660;13.226;2023-06-26T10:24:58;8.88;;;6.00;;
27223;SDS011;14965;50.660;13.226;2023-06-26T10:27:26;7.55;;;5.90;;
27223;SDS011;14965;50.660;13.226;2023-06-26T10:30:02;6.90;;;5.95;;
27223;SDS011;14965;50.660;13.226;2023-06-26T10:32:36;6.57;;;5.82;;
27223;SDS011;14965;50.660;13.226;2023-06-26T10:35:05;9.73;;;5.85;;
27223;SDS011;14965;50.660;13.226;2023-06-26T10:37:41;7.07;;;5.80;;
27223;SDS011;14965;50.660;13.226;2023-06-26T10:40:08;8.27;;;6.32;;
27223;SDS011;14965;50.660;13.226;2023-06-26T10:42:35;8.05;;;5.97;;
27223;SDS011;14965;50.660;13.226;2023-06-26T10:45:10;8.30;;;5.90;;
27223;SDS011;14965;50.660;13.226;2023-06-26T10:47:41;8.93;;;5.80;;
27223;SDS011;14965;50.660;13.226;2023-06-26T10:50:20;8.80;;;5.88;;
27223;SDS011;14965;50.660;13.226;2023-06-26T10:55:43;10.02;;;6.30;;
27223;SDS011;14965;50.660;13.226;2023-06-26T10:58:29;6.57;;;5.53;;
27223;SDS011;14965;50.660;13.226;2023-06-26T11:01:14;7.15;;;5.57;;
27223;SDS011;14965;50.660;13.226;2023-06-26T11:03:45;8.60;;;6.38;;
27223;SDS011;14965;50.660;13.226;2023-06-26T11:06:13;8.20;;;6.15;;
27223;SDS011;14965;50.660;13.226;2023-06-26T11:08:44;8.18;;;6.25;;
27223;SDS011;14965;50.660;13.226;2023-06-26T11:11:10;7.82;;;5.78;;
27223;SDS011;14965;50.660;13.226;2023-06-26T11:13:36;6.45;;;5.72;;
27223;SDS011;14965;50.660;13.226;2023-06-26T11:16:04;8.60;;;5.53;;
27223;SDS011;14965;50.660;13.226;2023-06-26T11:18:30;7.78;;;5.85;;
27223;SDS011;14965;50.660;13.226;2023-06-26T11:21:05;7.70;;;5.63;;
27223;SDS011;14965;50.660;13.226;2023-06-26T11:23:32;6.03;;;5.43;;
27223;SDS011;14965;50.660;13.226;2023-06-26T11:26:12;8.25;;;6.05;;
27223;SDS011;14965;50.660;13.226;2023-06-26T11:28:46;7.90;;;6.75;;
27223;SDS011;14965;50.660;13.226;2023-06-26T11:31:26;7.40;;;6.05;;
27223;SDS011;14965;50.660;13.226;2023-06-26T11:33:53;7.55;;;6.47;;
27223;SDS011;14965;50.660;13.226;2023-06-26T11:36:20;8.10;;;6.70;;
27223;SDS011;14965;50.660;13.226;2023-06-26T11:38:52;7.30;;;5.97;;
27223;SDS011;14965;50.660;13.226;2023-06-26T11:41:18;8.05;;;5.90;;
27223;SDS011;14965;50.660;13.226;2023-06-26T11:43:44;9.52;;;6.65;;
27223;SDS011;14965;50.660;13.226;2023-06-26T11:46:10;9.10;;;6.38;;
27223;SDS011;14965;50.660;13.226;2023-06-26T11:48:36;8.10;;;6.43;;
27223;SDS011;14965;50.660;13.226;2023-06-26T11:51:03;9.43;;;6.40;;
27223;SDS011;14965;50.660;13.226;2023-06-26T11:53:31;8.10;;;5.80;;
27223;SDS011;14965;50.660;13.226;2023-06-26T11:56:07;8.32;;;6.53;;
27223;SDS011;14965;50.660;13.226;2023-06-26T11:58:34;8.35;;;6.18;;
27223;SDS011;14965;50.660;13.226;2023-06-26T12:01:00;8.70;;;6.47;;
27223;SDS011;14965;50.660;13.226;2023-06-26T12:03:26;9.10;;;5.85;;
27223;SDS011;14965;50.660;13.226;2023-06-26T12:05:52;6.82;;;5.85;;
27223;SDS011;14965;50.660;13.226;2023-06-26T12:08:19;7.10;;;6.40;;
27223;SDS011;14965;50.660;13.226;2023-06-26T12:10:46;8.05;;;6.10;;
27223;SDS011;14965;50.660;13.226;2023-06-26T12:13:13;6.93;;;6.22;;
27223;SDS011;14965;50.660;13.226;2023-06-26T12:15:39;9.23;;;6.35;;
27223;SDS011;14965;50.660;13.226;2023-06-26T12:18:07;7.30;;;6.07;;
27223;SDS011;14965;50.660;13.226;2023-06-26T12:20:33;6.75;;;5.80;;
27223;SDS011;14965;50.660;13.226;2023-06-26T12:23:11;10.68;;;6.20;;
27223;SDS011;14965;50.660;13.226;2023-06-26T12:25:37;10.38;;;6.47;;
27223;SDS011;14965;50.660;13.226;2023-06-26T12:28:05;11.30;;;6.43;;
27223;SDS011;14965;50.660;13.226;2023-06-26T12:30:45;8.48;;;6.15;;
27223;SDS011;14965;50.660;13.226;2023-06-26T12:33:12;7.57;;;6.75;;
27223;SDS011;14965;50.660;13.226;2023-06-26T12:35:39;7.38;;;6.50;;
27223;SDS011;14965;50.660;13.226;2023-06-26T12:38:06;9.10;;;6.68;;
27223;SDS011;14965;50.660;13.226;2023-06-26T12:40:32;7.90;;;6.73;;
27223;SDS011;14965;50.660;13.226;2023-06-26T12:42:58;7.93;;;6.15;;
27223;SDS011;14965;50.660;13.226;2023-06-26T12:45:26;7.88;;;6.30;;
27223;SDS011;14965;50.660;13.226;2023-06-26T12:47:52;7.30;;;6.53;;
27223;SDS011;14965;50.660;13.226;2023-06-26T12:50:17;7.88;;;6.57;;
27223;SDS011;14965;50.660;13.226;2023-06-26T12:52:43;8.88;;;6.60;;
27223;SDS011;14965;50.660;13.226;2023-06-26T12:55:09;6.88;;;6.18;;
27223;SDS011;14965;50.660;13.226;2023-06-26T12:57:35;9.07;;;6.22;;
27223;SDS011;14965;50.660;13.226;2023-06-26T13:00:01;10.77;;;6.05;;
27223;SDS011;14965;50.660;13.226;2023-06-26T13:02:30;6.93;;;6.00;;
27223;SDS011;14965;50.660;13.226;2023-06-26T13:04:55;7.75;;;6.22;;
27223;SDS011;14965;50.660;13.226;2023-06-26T13:07:21;6.97;;;6.00;;
27223;SDS011;14965;50.660;13.226;2023-06-26T13:09:47;8.50;;;6.65;;
27223;SDS011;14965;50.660;13.226;2023-06-26T13:12:13;7.53;;;6.45;;
27223;SDS011;14965;50.660;13.226;2023-06-26T13:14:39;7.70;;;6.07;;
27223;SDS011;14965;50.660;13.226;2023-06-26T13:17:05;8.25;;;6.88;;
27223;SDS011;14965;50.660;13.226;2023-06-26T13:19:32;10.25;;;6.68;;
27223;SDS011;14965;50.660;13.226;2023-06-26T13:21:58;9.15;;;6.63;;
27223;SDS011;14965;50.660;13.226;2023-06-26T13:24:24;9.48;;;6.82;;
27223;SDS011;14965;50.660;13.226;2023-06-26T13:26:50;9.30;;;6.60;;
27223;SDS011;14965;50.660;13.226;2023-06-26T13:29:16;9.07;;;6.13;;
27223;SDS011;14965;50.660;13.226;2023-06-26T13:31:42;6.97;;;5.95;;
27223;SDS011;14965;50.660;13.226;2023-06-26T13:34:08;8.48;;;6.30;;
27223;SDS011;14965;50.660;13.226;2023-06-26T13:36:46;8.05;;;6.20;;
27223;SDS011;14965;50.660;13.226;2023-06-26T13:39:12;8.10;;;6.00;;
27223;SDS011;14965;50.660;13.226;2023-06-26T13:41:38;8.90;;;5.78;;
27223;SDS011;14965;50.660;13.226;2023-06-26T13:44:04;8.52;;;7.07;;
27223;SDS011;14965;50.660;13.226;2023-06-26T13:46:30;7.60;;;6.00;;
27223;SDS011;14965;50.660;13.226;2023-06-26T13:48:56;8.90;;;6.57;;
27223;SDS011;14965;50.660;13.226;2023-06-26T13:51:22;7.18;;;6.18;;
27223;SDS011;14965;50.660;13.226;2023-06-26T13:53:50;6.97;;;5.90;;
27223;SDS011;14965;50.660;13.226;2023-06-26T13:56:16;11.00;;;6.07;;
27223;SDS011;14965;50.660;13.226;2023-06-26T13:58:42;7.10;;;6.00;;
27223;SDS011;14965;50.660;13.226;2023-06-26T14:01:11;7.30;;;6.47;;
27223;SDS011;14965;50.660;13.226;2023-06-26T14:03:37;7.38;;;6.20;;
27223;SDS011;14965;50.660;13.226;2023-06-26T14:06:03;8.30;;;6.70;;
27223;SDS011;14965;50.660;13.226;2023-06-26T14:08:29;9.48;;;6.82;;
27223;SDS011;14965;50.660;13.226;2023-06-26T14:10:56;7.45;;;6.32;;
27223;SDS011;14965;50.660;13.226;2023-06-26T14:13:22;7.68;;;5.90;;
27223;SDS011;14965;50.660;13.226;2023-06-26T14:15:48;7.63;;;6.40;;
27223;SDS011;14965;50.660;13.226;2023-06-26T14:18:14;10.13;;;5.97;;
27223;SDS011;14965;50.660;13.226;2023-06-26T14:20:40;9.45;;;6.18;;
27223;SDS011;14965;50.660;13.226;2023-06-26T14:23:06;6.90;;;5.97;;
27223;SDS011;14965;50.660;13.226;2023-06-26T14:25:32;8.13;;;5.70;;
27223;SDS011;14965;50.660;13.226;2023-06-26T14:27:59;9.20;;;5.75;;
27223;SDS011;14965;50.660;13.226;2023-06-26T14:30:25;7.00;;;5.78;;
27223;SDS011;14965;50.660;13.226;2023-06-26T14:32:51;9.02;;;6.38;;
27223;SDS011;14965;50.660;13.226;2023-06-26T14:35:17;13.10;;;6.32;;
27223;SDS011;14965;50.660;13.226;2023-06-26T14:37:43;9.07;;;6.18;;